KOXV

Knoxville Municipal Airport

Knoxville, Iowa, USA
METAR KOXV 151235Z AUTO 15006KT 10SM CLR M07/M08 A3011 RMK AO2
Observed Flight Rules
Nov-15 @ 12:35 UTC (8 minutes ago) Visual Flight Rules
Wind Visibility Clouds
150° at 6 knots 10 miles
  • Clear skies
Temperatures Readings
Current -7°C / 19°F
Dewpoint -8°C / 18°F
Humidity 93%
Altimeter 30.11" Hg
Pressure 1020 hPa
Elevation 283
METAR KOXV 151235Z AUTO 15006KT 10SM CLR M07/M08 A3011 RMK AO2
Observed Flight Rules
Nov-15 @ 12:35 UTC
(8 minutes ago)
VFR
Wind Visibility
150° at 6 knots 10 miles
Clouds
  • Clear skies
Temperature Dewpoint
-7°C / 19°F -8°C / 18°F
Humidity Altimeter Pressure
93% 30.11" Hg 1020 hPa